createdAt,value
2023-04-05T00:02:21.255Z,57.11
2023-04-05T00:04:57.865Z,57.12
2023-04-05T00:07:30.243Z,56.86
2023-04-05T00:10:02.916Z,57.00
2023-04-05T00:12:35.398Z,57.25
2023-04-05T00:15:09.523Z,57.06
2023-04-05T00:17:42.453Z,57.12
2023-04-05T00:20:16.092Z,57.16
2023-04-05T00:22:50.908Z,56.94
2023-04-05T00:25:23.362Z,56.50
2023-04-05T00:27:55.887Z,56.64
2023-04-05T00:30:29.286Z,55.70
2023-04-05T00:33:02.123Z,55.03
2023-04-05T00:35:34.764Z,54.55
2023-04-05T00:38:07.161Z,54.76
2023-04-05T00:40:40.780Z,54.40
2023-04-05T00:43:13.588Z,53.94
2023-04-05T00:45:46.161Z,53.53
2023-04-05T00:48:18.822Z,53.65
2023-04-05T00:50:52.261Z,55.26
2023-04-05T00:53:24.728Z,55.70
2023-04-05T00:55:58.601Z,56.01
2023-04-05T00:58:32.038Z,56.40
2023-04-05T01:01:14.124Z,56.93
2023-04-05T01:03:53.815Z,57.05
2023-04-05T01:06:38.413Z,57.21
2023-04-05T01:09:26.559Z,57.48
2023-04-05T01:12:04.049Z,57.55
2023-04-05T01:14:47.091Z,57.69
2023-04-05T01:17:22.563Z,57.72
2023-04-05T01:19:59.541Z,57.88
2023-04-05T01:23:15.791Z,57.91
2023-04-05T01:25:58.883Z,58.29
2023-04-05T01:29:11.444Z,58.26
2023-04-05T01:31:51.579Z,58.37
2023-04-05T01:34:35.061Z,58.16
2023-04-05T01:37:13.528Z,57.97
2023-04-05T01:39:47.526Z,58.41
2023-04-05T01:42:26.262Z,58.45
2023-04-05T01:44:59.937Z,58.60
2023-04-05T01:47:32.526Z,58.86
2023-04-05T01:50:05.163Z,58.35
2023-04-05T01:52:37.733Z,58.40
2023-04-05T01:55:11.390Z,57.95
2023-04-05T01:57:43.856Z,57.84
2023-04-05T02:00:19.428Z,57.88
2023-04-05T02:02:52.068Z,58.09
2023-04-05T02:05:24.601Z,58.12
2023-04-05T02:07:57.645Z,58.45
2023-04-05T02:10:29.986Z,58.41
2023-04-05T02:13:02.486Z,58.33
2023-04-05T02:15:35.836Z,58.30
2023-04-05T02:18:09.583Z,58.17
2023-04-05T02:20:42.222Z,58.23
2023-04-05T02:23:14.775Z,58.26
2023-04-05T02:25:47.317Z,58.08
2023-04-05T02:28:19.658Z,57.61
2023-04-05T02:30:52.627Z,57.55
2023-04-05T02:33:25.081Z,57.77
2023-04-05T02:35:58.117Z,57.88
2023-04-05T02:38:31.038Z,57.94
2023-04-05T02:41:03.505Z,57.85
2023-04-05T02:43:36.490Z,57.88
2023-04-05T02:46:09.185Z,57.80
2023-04-05T02:48:44.650Z,57.66
2023-04-05T02:51:17.942Z,57.76
2023-04-05T02:53:50.654Z,58.06
2023-04-05T02:56:23.361Z,57.92
2023-04-05T02:58:56.714Z,58.16
2023-04-05T03:01:32.634Z,58.41
2023-04-05T03:04:06.054Z,58.61
2023-04-05T03:06:38.710Z,58.64
2023-04-05T03:09:12.135Z,58.32
2023-04-05T03:11:44.641Z,58.14
2023-04-05T03:14:17.393Z,58.32
2023-04-05T03:16:51.463Z,58.42
2023-04-05T03:19:28.189Z,58.70
2023-04-05T03:22:05.743Z,58.63
2023-04-05T03:24:39.735Z,58.57
2023-04-05T03:27:15.082Z,58.89
2023-04-05T03:30:09.995Z,58.90
2023-04-05T03:32:47.136Z,58.85
2023-04-05T03:35:29.102Z,58.88
2023-04-05T03:38:01.934Z,58.81
2023-04-05T03:40:34.916Z,58.85
2023-04-05T03:43:07.779Z,58.74
2023-04-05T03:45:40.663Z,58.94
2023-04-05T03:48:13.634Z,58.87
2023-04-05T03:50:47.107Z,58.94
2023-04-05T03:53:19.706Z,59.07
2023-04-05T03:55:55.860Z,58.83
2023-04-05T03:58:53.842Z,58.98
2023-04-05T04:01:30.760Z,59.12
2023-04-05T04:04:05.190Z,59.15
2023-04-05T04:06:38.457Z,59.24
2023-04-05T04:09:11.281Z,59.20
2023-04-05T04:11:44.601Z,59.19
2023-04-05T04:14:18.794Z,59.14
2023-04-05T04:17:03.488Z,59.26
2023-04-05T04:19:57.045Z,59.16
2023-04-05T04:23:10.385Z,59.27
2023-04-05T04:26:01.854Z,59.23
2023-04-05T04:28:49.408Z,59.26
2023-04-05T04:31:46.073Z,59.42
2023-04-05T04:34:30.822Z,59.04
2023-04-05T04:37:32.557Z,59.17
2023-04-05T04:40:25.780Z,59.14
2023-04-05T04:43:18.490Z,59.53
2023-04-05T04:46:11.939Z,59.40
2023-04-05T04:48:59.920Z,59.26
2023-04-05T04:51:40.335Z,59.54
2023-04-05T04:54:13.567Z,59.55
2023-04-05T04:56:46.853Z,59.55
2023-04-05T04:59:19.415Z,59.40
2023-04-05T05:01:51.502Z,59.33
2023-04-05T05:04:23.856Z,59.44
2023-04-05T05:06:56.894Z,59.52
2023-04-05T05:09:29.616Z,59.44
2023-04-05T05:12:04.125Z,59.47
2023-04-05T05:14:36.884Z,59.65
2023-04-05T05:17:09.475Z,59.66
2023-04-05T05:19:42.257Z,59.62
2023-04-05T05:22:14.495Z,59.49
2023-04-05T05:24:48.313Z,59.58
2023-04-05T05:27:21.694Z,59.55
2023-04-05T05:29:54.483Z,59.15
2023-04-05T05:32:26.785Z,59.16
2023-04-05T05:35:00.052Z,59.23
2023-04-05T05:37:35.297Z,58.95
2023-04-05T05:40:10.006Z,58.99
2023-04-05T05:42:42.332Z,58.71
2023-04-05T05:45:15.617Z,58.43
2023-04-05T05:47:48.288Z,58.66
2023-04-05T05:50:21.711Z,58.65
2023-04-05T05:52:54.791Z,58.61
2023-04-05T05:55:27.352Z,58.85
2023-04-05T05:58:00.138Z,59.19
2023-04-05T06:00:32.617Z,59.11
2023-04-05T06:03:06.060Z,59.05
2023-04-05T06:05:38.762Z,58.83
2023-04-05T06:08:12.148Z,58.61
2023-04-05T06:10:44.705Z,58.36
2023-04-05T06:13:17.373Z,58.57
2023-04-05T06:15:50.179Z,58.58
2023-04-05T06:18:22.726Z,58.78
2023-04-05T06:20:56.021Z,58.74
2023-04-05T06:23:29.100Z,58.77
2023-04-05T06:26:01.800Z,59.17
2023-04-05T06:28:34.021Z,58.53
2023-04-05T06:31:06.682Z,58.84
2023-04-05T06:33:39.196Z,58.46
2023-04-05T06:36:12.302Z,57.98
2023-04-05T06:38:44.815Z,58.22
2023-04-05T06:41:17.424Z,58.26
2023-04-05T06:43:50.196Z,58.31
2023-04-05T06:46:22.605Z,58.19
2023-04-05T06:48:55.256Z,58.06
2023-04-05T06:51:28.996Z,58.16
2023-04-05T06:54:01.822Z,57.84
2023-04-05T06:56:34.287Z,58.28
2023-04-05T06:59:06.748Z,58.60
2023-04-05T07:01:42.536Z,58.34
2023-04-05T07:04:15.166Z,58.20
2023-04-05T07:06:47.721Z,58.53
2023-04-05T07:09:20.794Z,58.20
2023-04-05T07:11:53.468Z,57.77
2023-04-05T07:14:26.225Z,57.29
2023-04-05T07:16:58.945Z,57.49
2023-04-05T07:19:31.147Z,58.01
2023-04-05T07:22:03.502Z,58.77
2023-04-05T07:24:36.849Z,58.04
2023-04-05T07:27:09.373Z,57.73
2023-04-05T07:29:44.584Z,57.40
2023-04-05T07:32:18.665Z,57.18
2023-04-05T07:34:51.396Z,57.24
2023-04-05T07:37:23.760Z,57.28
2023-04-05T07:39:58.548Z,57.45
2023-04-05T07:42:32.156Z,57.15
2023-04-05T07:45:04.673Z,56.52
2023-04-05T07:47:37.424Z,56.53
2023-04-05T07:50:14.988Z,56.27
2023-04-05T07:52:47.544Z,55.95
2023-04-05T07:55:20.055Z,55.95
2023-04-05T07:57:52.573Z,56.25
2023-04-05T08:00:25.873Z,56.12
2023-04-05T08:03:01.837Z,56.54
2023-04-05T08:05:35.240Z,56.55
2023-04-05T08:08:11.128Z,55.93
2023-04-05T08:10:43.811Z,55.74
2023-04-05T08:13:16.442Z,55.69
2023-04-05T08:15:48.865Z,55.76
2023-04-05T08:18:21.619Z,55.81
2023-04-05T08:20:56.916Z,55.20
2023-04-05T08:23:29.404Z,54.57
2023-04-05T08:26:01.904Z,55.09
2023-04-05T08:28:34.745Z,54.76
2023-04-05T08:31:07.228Z,54.86
2023-04-05T08:33:39.417Z,55.14
2023-04-05T08:36:12.841Z,55.08
2023-04-05T08:38:44.920Z,54.72
2023-04-05T08:41:21.075Z,54.75
2023-04-05T08:43:59.245Z,53.81
2023-04-05T08:46:33.473Z,53.40
2023-04-05T08:49:09.326Z,53.33
2023-04-05T08:51:41.943Z,53.65
2023-04-05T08:54:14.617Z,53.25
2023-04-05T08:56:50.340Z,52.49
2023-04-05T08:59:24.781Z,52.84
2023-04-05T09:01:59.851Z,52.37
2023-04-05T09:04:39.914Z,51.95
2023-04-05T09:07:14.302Z,51.56
2023-04-05T09:09:48.455Z,51.28
2023-04-05T09:12:24.041Z,50.48
2023-04-05T09:14:57.172Z,50.50
2023-04-05T09:17:32.463Z,49.88
2023-04-05T09:20:05.259Z,49.33
2023-04-05T09:22:46.683Z,49.28
2023-04-05T09:25:38.901Z,49.05
2023-04-05T09:28:12.306Z,48.26
2023-04-05T09:30:48.356Z,48.56
2023-04-05T09:33:23.109Z,48.41
2023-04-05T09:35:56.245Z,47.68
2023-04-05T09:38:45.345Z,47.37
2023-04-05T09:41:18.080Z,47.28
2023-04-05T09:43:50.794Z,46.54
2023-04-05T09:46:35.590Z,45.14
2023-04-05T09:49:10.295Z,44.52
2023-04-05T09:51:42.571Z,43.28
2023-04-05T09:54:17.454Z,42.82
2023-04-05T09:56:58.452Z,42.93
2023-04-05T09:59:32.079Z,42.53
2023-04-05T10:02:05.753Z,43.09
2023-04-05T10:04:43.816Z,44.55
2023-04-05T10:07:17.172Z,42.99
2023-04-05T10:09:50.669Z,42.56
2023-04-05T10:12:28.022Z,42.13
2023-04-05T10:15:01.156Z,41.61
2023-04-05T10:17:40.418Z,41.89
2023-04-05T10:20:18.087Z,41.84
2023-04-05T10:23:03.161Z,41.83
2023-04-05T10:25:51.024Z,42.06
2023-04-05T10:28:32.088Z,42.77
2023-04-05T10:31:26.977Z,42.78
2023-04-05T10:34:07.986Z,42.80
2023-04-05T10:36:48.184Z,43.44
2023-04-05T10:39:27.792Z,43.23
2023-04-05T10:42:06.293Z,43.51
2023-04-05T10:44:40.723Z,43.53
2023-04-05T10:47:18.135Z,43.64
2023-04-05T10:49:54.801Z,43.18
2023-04-05T10:52:28.915Z,42.97
2023-04-05T10:55:03.543Z,43.25
2023-04-05T10:57:37.346Z,43.11
2023-04-05T11:00:12.364Z,43.46
2023-04-05T11:02:45.085Z,43.02
2023-04-05T11:05:37.622Z,42.10
2023-04-05T11:08:12.804Z,42.20
2023-04-05T11:10:53.499Z,42.11
2023-04-05T11:13:50.839Z,41.81
2023-04-05T11:16:23.994Z,41.59
2023-04-05T11:18:56.960Z,40.87
2023-04-05T11:21:32.490Z,41.26
2023-04-05T11:24:12.056Z,41.49
2023-04-05T11:26:58.248Z,41.38
2023-04-05T11:29:50.069Z,40.79
2023-04-05T11:32:22.849Z,39.16
2023-04-05T11:35:06.352Z,39.87
2023-04-05T11:38:08.509Z,39.16
2023-04-05T11:40:43.582Z,38.25
2023-04-05T11:43:16.453Z,37.73
2023-04-05T11:45:49.667Z,37.14
2023-04-05T11:48:25.071Z,36.67
2023-04-05T11:50:58.494Z,36.84
2023-04-05T11:53:31.667Z,36.82
2023-04-05T11:56:12.812Z,35.41
2023-04-05T11:58:45.828Z,35.89
2023-04-05T12:01:21.028Z,35.76
2023-04-05T12:03:58.342Z,36.20
2023-04-05T12:06:30.996Z,36.15
2023-04-05T12:09:08.109Z,35.48
2023-04-05T12:11:41.401Z,36.18
2023-04-05T12:14:13.921Z,35.41
2023-04-05T12:16:53.174Z,36.60
2023-04-05T12:19:30.904Z,36.73
2023-04-05T12:22:03.515Z,37.02
2023-04-05T12:24:36.720Z,37.85
2023-04-05T12:27:09.598Z,37.26
2023-04-05T12:29:42.369Z,35.92
2023-04-05T12:32:16.408Z,35.48
2023-04-05T12:34:57.859Z,36.06
2023-04-05T12:37:30.900Z,36.59
2023-04-05T12:40:06.012Z,37.64
2023-04-05T12:42:39.306Z,36.55
2023-04-05T12:45:15.030Z,35.79
2023-04-05T12:48:01.472Z,35.84
2023-04-05T12:50:34.634Z,35.63
2023-04-05T12:53:09.940Z,35.31
2023-04-05T12:55:49.619Z,36.71
2023-04-05T12:58:22.768Z,35.68
2023-04-05T13:00:55.442Z,35.82
2023-04-05T13:03:29.373Z,35.33
2023-04-05T13:06:02.187Z,34.89
2023-04-05T13:08:34.596Z,34.84
2023-04-05T13:11:07.448Z,34.43
2023-04-05T13:13:39.940Z,33.67
2023-04-05T13:16:12.828Z,33.81
2023-04-05T13:18:45.058Z,33.67
2023-04-05T13:21:17.837Z,33.48
2023-04-05T13:23:50.390Z,33.62
2023-04-05T13:26:23.551Z,33.04
2023-04-05T13:28:56.138Z,33.67
2023-04-05T13:31:28.831Z,33.46
2023-04-05T13:34:01.205Z,33.43
2023-04-05T13:36:33.576Z,35.10
2023-04-05T13:39:06.215Z,34.72
2023-04-05T13:41:39.201Z,34.68
2023-04-05T13:44:11.693Z,34.29
2023-04-05T13:46:44.221Z,33.96
2023-04-05T13:49:17.101Z,34.68
2023-04-05T13:51:49.553Z,34.42
2023-04-05T13:54:22.222Z,34.67
2023-04-05T13:56:55.023Z,34.47
2023-04-05T13:59:27.504Z,35.52
2023-04-05T14:02:00.495Z,35.67
2023-04-05T14:04:33.161Z,35.94
2023-04-05T14:07:06.381Z,36.67
2023-04-05T14:09:38.783Z,36.36
2023-04-05T14:12:11.463Z,35.60
2023-04-05T14:14:44.169Z,36.02
2023-04-05T14:17:17.439Z,36.86
2023-04-05T14:19:50.219Z,36.43
2023-04-05T14:22:22.730Z,36.34
2023-04-05T14:24:55.481Z,36.67
2023-04-05T14:27:28.543Z,36.56
2023-04-05T14:30:01.065Z,36.15
2023-04-05T14:32:33.963Z,37.06
2023-04-05T14:35:07.192Z,36.42
2023-04-05T14:37:40.033Z,37.57
2023-04-05T14:40:13.781Z,37.28
2023-04-05T14:42:49.835Z,37.70
2023-04-05T14:45:23.436Z,36.29
2023-04-05T14:47:56.284Z,36.12
2023-04-05T14:50:32.412Z,35.18
2023-04-05T14:53:04.860Z,34.63
2023-04-05T14:55:39.549Z,35.17
2023-04-05T14:58:14.621Z,34.72
2023-04-05T15:00:49.153Z,34.48
2023-04-05T15:03:22.385Z,34.99
2023-04-05T15:05:55.833Z,35.13
2023-04-05T15:08:28.190Z,34.96
2023-04-05T15:11:01.628Z,35.60
2023-04-05T15:13:34.272Z,35.16
2023-04-05T15:16:07.348Z,35.45
2023-04-05T15:18:40.268Z,35.59
2023-04-05T15:21:12.760Z,36.01
2023-04-05T15:23:45.473Z,35.92
2023-04-05T15:26:18.083Z,36.13
2023-04-05T15:28:50.908Z,35.42
2023-04-05T15:31:23.358Z,35.82
2023-04-05T15:33:56.897Z,36.65
2023-04-05T15:36:30.266Z,37.18
2023-04-05T15:39:05.198Z,35.92
2023-04-05T15:41:37.884Z,36.35
2023-04-05T15:44:10.696Z,37.27
2023-04-05T15:46:43.647Z,37.71
2023-04-05T15:49:17.554Z,37.99
2023-04-05T15:51:51.019Z,37.47
2023-04-05T15:54:23.670Z,37.30
2023-04-05T15:56:56.963Z,36.74
2023-04-05T15:59:30.106Z,36.67
2023-04-05T16:02:02.693Z,36.16
2023-04-05T16:04:35.674Z,37.27
2023-04-05T16:07:09.118Z,36.82
2023-04-05T16:09:42.002Z,36.55
2023-04-05T16:12:15.086Z,36.28
2023-04-05T16:14:47.797Z,36.03
2023-04-05T16:17:20.176Z,36.45
2023-04-05T16:20:09.666Z,36.07
2023-04-05T16:22:42.477Z,36.16
2023-04-05T16:25:14.881Z,36.59
2023-04-05T16:27:47.805Z,36.12
2023-04-05T16:30:21.228Z,35.99
2023-04-05T16:32:54.655Z,35.68
2023-04-05T16:35:27.960Z,35.52
2023-04-05T16:38:00.853Z,35.50
2023-04-05T16:40:33.393Z,34.97
2023-04-05T16:43:05.797Z,34.72
2023-04-05T16:45:38.684Z,34.81
2023-04-05T16:48:11.495Z,35.45
2023-04-05T16:50:43.791Z,35.64
2023-04-05T16:53:16.285Z,35.92
2023-04-05T16:55:48.992Z,36.37
2023-04-05T16:58:21.632Z,35.78
2023-04-05T17:00:58.724Z,35.60
2023-04-05T17:03:32.147Z,35.84
2023-04-05T17:06:05.323Z,36.09
2023-04-05T17:08:37.951Z,36.09
2023-04-05T17:11:10.493Z,36.24
2023-04-05T17:13:45.127Z,37.21
2023-04-05T17:16:17.722Z,37.91
2023-04-05T17:18:50.480Z,38.26
2023-04-05T17:21:37.299Z,38.89
2023-04-05T17:24:11.015Z,39.52
2023-04-05T17:26:43.404Z,39.78
2023-04-05T17:29:17.786Z,39.94
2023-04-05T17:31:51.950Z,40.41
2023-04-05T17:34:25.155Z,40.52
2023-04-05T17:36:57.787Z,41.14
2023-04-05T17:39:30.390Z,40.86
2023-04-05T17:42:02.856Z,41.04
2023-04-05T17:44:35.636Z,40.96
2023-04-05T17:47:09.799Z,41.20
2023-04-05T17:49:42.617Z,41.18
2023-04-05T17:52:15.447Z,41.15
2023-04-05T17:54:48.055Z,41.55
2023-04-05T17:57:22.883Z,42.02
2023-04-05T17:59:57.484Z,42.18
2023-04-05T18:02:30.688Z,42.39
2023-04-05T18:05:03.596Z,41.79
2023-04-05T18:07:38.246Z,41.95
2023-04-05T18:10:12.417Z,42.61
2023-04-05T18:12:44.867Z,43.15
2023-04-05T18:15:18.459Z,43.20
2023-04-05T18:17:52.380Z,43.30
2023-04-05T18:20:24.996Z,43.36
2023-04-05T18:22:59.248Z,43.45
2023-04-05T18:25:32.224Z,43.74
2023-04-05T18:28:19.386Z,43.74
2023-04-05T18:30:54.991Z,43.75
2023-04-05T18:33:27.587Z,43.82
2023-04-05T18:36:00.269Z,44.13
2023-04-05T18:38:33.061Z,44.75
2023-04-05T18:41:07.168Z,44.63
2023-04-05T18:43:39.860Z,44.71
2023-04-05T18:46:18.406Z,45.27
2023-04-05T18:48:54.996Z,45.21
2023-04-05T18:51:28.681Z,45.38
2023-04-05T18:54:03.021Z,45.37
2023-04-05T18:56:35.548Z,45.61
2023-04-05T18:59:08.380Z,45.12
2023-04-05T19:01:41.607Z,45.27
2023-04-05T19:04:16.264Z,45.50
2023-04-05T19:06:48.580Z,46.00
2023-04-05T19:09:22.273Z,46.05
2023-04-05T19:11:56.638Z,46.17
2023-04-05T19:14:28.937Z,46.31
2023-04-05T19:17:01.823Z,46.64
2023-04-05T19:19:34.104Z,46.43
2023-04-05T19:22:06.804Z,46.56
2023-04-05T19:24:40.938Z,46.44
2023-04-05T19:27:13.565Z,46.33
2023-04-05T19:29:46.268Z,46.37
2023-04-05T19:32:19.237Z,46.75
2023-04-05T19:34:52.779Z,46.42
2023-04-05T19:37:24.959Z,46.60
2023-04-05T19:39:58.299Z,46.66
2023-04-05T19:42:31.070Z,46.79
2023-04-05T19:45:03.703Z,46.81
2023-04-05T19:47:43.287Z,46.85
2023-04-05T19:50:48.434Z,47.36
2023-04-05T19:53:39.598Z,47.08
2023-04-05T19:56:15.736Z,47.34
2023-04-05T19:58:50.475Z,47.02
2023-04-05T20:01:33.514Z,47.06
2023-04-05T20:04:14.355Z,47.01
2023-04-05T20:06:53.868Z,46.78
2023-04-05T20:09:29.385Z,46.78
2023-04-05T20:12:03.729Z,46.99
2023-04-05T20:14:43.044Z,47.31
2023-04-05T20:17:18.232Z,47.34
2023-04-05T20:20:00.150Z,47.35
2023-04-05T20:22:35.105Z,47.40
2023-04-05T20:25:28.311Z,47.24
2023-04-05T20:28:00.828Z,47.21
2023-04-05T20:30:34.428Z,47.63
2023-04-05T20:33:09.488Z,47.58
2023-04-05T20:35:42.117Z,47.68
2023-04-05T20:38:14.758Z,47.60
2023-04-05T20:40:46.968Z,47.52
2023-04-05T20:43:19.776Z,47.34
2023-04-05T20:45:53.204Z,47.62
2023-04-05T20:48:25.773Z,47.85
2023-04-05T20:51:00.256Z,47.81
2023-04-05T20:53:33.220Z,48.00
2023-04-05T20:56:06.525Z,47.93
2023-04-05T20:58:40.074Z,48.43
2023-04-05T21:01:12.655Z,48.10
2023-04-05T21:03:45.229Z,48.08
2023-04-05T21:06:18.072Z,48.13
2023-04-05T21:08:50.565Z,48.33
2023-04-05T21:11:22.884Z,48.38
2023-04-05T21:13:55.344Z,48.67
2023-04-05T21:16:27.744Z,48.76
2023-04-05T21:19:00.448Z,48.74
2023-04-05T21:21:32.893Z,48.85
2023-04-05T21:24:05.346Z,48.99
2023-04-05T21:26:38.254Z,49.23
2023-04-05T21:29:11.142Z,49.17
2023-04-05T21:31:43.764Z,49.49
2023-04-05T21:34:15.989Z,49.38
2023-04-05T21:38:27.262Z,49.46
2023-04-05T21:41:00.373Z,49.71
2023-04-05T21:43:33.116Z,49.80
2023-04-05T21:46:05.910Z,49.97
2023-04-05T21:48:38.571Z,50.27
2023-04-05T21:51:11.375Z,50.38
2023-04-05T21:53:43.841Z,50.23
2023-04-05T21:56:16.629Z,50.58
2023-04-05T21:58:49.261Z,50.65
2023-04-05T22:01:22.133Z,50.96
2023-04-05T22:04:18.595Z,51.01
2023-04-05T22:06:51.814Z,51.51
2023-04-05T22:09:24.948Z,51.61
2023-04-05T22:11:58.193Z,51.62
2023-04-05T22:14:30.897Z,51.63
2023-04-05T22:17:03.452Z,52.02
2023-04-05T22:19:36.410Z,51.97
2023-04-05T22:22:09.326Z,51.99
2023-04-05T22:24:41.793Z,52.13
2023-04-05T22:27:14.480Z,52.33
2023-04-05T22:29:48.639Z,52.51
2023-04-05T22:32:21.632Z,52.47
2023-04-05T22:34:54.719Z,52.62
2023-04-05T22:37:27.521Z,52.65
2023-04-05T22:40:00.226Z,52.66
2023-04-05T22:42:32.781Z,52.73
2023-04-05T22:45:07.416Z,52.71
2023-04-05T22:47:40.364Z,52.73
2023-04-05T22:50:13.558Z,52.62
2023-04-05T22:52:46.597Z,52.73
2023-04-05T22:55:19.628Z,52.84
2023-04-05T22:57:52.117Z,52.99
2023-04-05T23:00:25.150Z,52.83
2023-04-05T23:02:58.553Z,52.91
2023-04-05T23:05:31.091Z,53.03
2023-04-05T23:08:03.752Z,53.07
2023-04-05T23:10:36.370Z,53.21
2023-04-05T23:13:08.567Z,53.16
2023-04-05T23:15:41.173Z,52.82
2023-04-05T23:18:14.406Z,52.69
2023-04-05T23:20:46.813Z,52.51
2023-04-05T23:23:19.361Z,52.80
2023-04-05T23:25:52.279Z,52.38
2023-04-05T23:28:24.796Z,51.96
2023-04-05T23:30:57.602Z,51.62
2023-04-05T23:33:30.186Z,51.96
2023-04-05T23:36:03.496Z,51.81
2023-04-05T23:38:36.784Z,51.84
2023-04-05T23:41:09.122Z,51.97
2023-04-05T23:43:41.770Z,52.39
2023-04-05T23:46:14.201Z,52.46
2023-04-05T23:48:46.772Z,52.63
2023-04-05T23:51:19.073Z,52.29
2023-04-05T23:53:51.629Z,52.38
2023-04-05T23:56:24.381Z,52.14
2023-04-05T23:58:56.934Z,52.59
